sensor_id;sensor_type;location;lat;lon;timestamp;P1;durP1;ratioP1;P2;durP2;ratioP2
59907;SDS011;61804;54.926;73.496;2022-08-21T00:01:00;10.73;;;5.40;;
59907;SDS011;61804;54.926;73.496;2022-08-21T00:03:34;6.40;;;5.75;;
59907;SDS011;61804;54.926;73.496;2022-08-21T00:06:02;7.65;;;5.07;;
59907;SDS011;61804;54.926;73.496;2022-08-21T00:08:34;7.72;;;5.47;;
59907;SDS011;61804;54.926;73.496;2022-08-21T00:11:03;9.98;;;5.03;;
59907;SDS011;61804;54.926;73.496;2022-08-21T00:13:32;8.00;;;4.85;;
59907;SDS011;61804;54.926;73.496;2022-08-21T00:16:01;10.20;;;5.07;;
59907;SDS011;61804;54.926;73.496;2022-08-21T00:18:28;5.13;;;4.57;;
59907;SDS011;61804;54.926;73.496;2022-08-21T00:20:56;8.50;;;5.22;;
59907;SDS011;61804;54.926;73.496;2022-08-21T00:23:35;8.23;;;4.95;;
59907;SDS011;61804;54.926;73.496;2022-08-21T00:26:03;8.80;;;6.25;;
59907;SDS011;61804;54.926;73.496;2022-08-21T00:28:33;5.82;;;5.22;;
59907;SDS011;61804;54.926;73.496;2022-08-21T00:31:01;6.05;;;4.88;;
59907;SDS011;61804;54.926;73.496;2022-08-21T00:33:31;12.48;;;6.22;;
59907;SDS011;61804;54.926;73.496;2022-08-21T00:35:59;6.90;;;4.60;;
59907;SDS011;61804;54.926;73.496;2022-08-21T00:38:27;5.85;;;3.95;;
59907;SDS011;61804;54.926;73.496;2022-08-21T00:40:59;5.75;;;5.13;;
59907;SDS011;61804;54.926;73.496;2022-08-21T00:43:28;6.80;;;4.57;;
59907;SDS011;61804;54.926;73.496;2022-08-21T00:45:56;7.07;;;4.68;;
59907;SDS011;61804;54.926;73.496;2022-08-21T00:48:24;6.15;;;5.43;;
59907;SDS011;61804;54.926;73.496;2022-08-21T00:51:05;6.80;;;5.65;;
59907;SDS011;61804;54.926;73.496;2022-08-21T00:53:35;6.78;;;5.05;;
59907;SDS011;61804;54.926;73.496;2022-08-21T00:56:12;5.57;;;5.07;;
59907;SDS011;61804;54.926;73.496;2022-08-21T00:58:40;11.30;;;5.20;;
59907;SDS011;61804;54.926;73.496;2022-08-21T01:01:15;5.70;;;4.43;;
59907;SDS011;61804;54.926;73.496;2022-08-21T01:03:48;11.52;;;6.10;;
59907;SDS011;61804;54.926;73.496;2022-08-21T01:06:16;10.20;;;6.28;;
59907;SDS011;61804;54.926;73.496;2022-08-21T01:08:49;5.72;;;4.80;;
59907;SDS011;61804;54.926;73.496;2022-08-21T01:11:17;6.82;;;4.47;;
59907;SDS011;61804;54.926;73.496;2022-08-21T01:13:54;18.27;;;5.22;;
59907;SDS011;61804;54.926;73.496;2022-08-21T01:16:31;5.28;;;4.78;;
59907;SDS011;61804;54.926;73.496;2022-08-21T01:19:04;6.75;;;5.80;;
59907;SDS011;61804;54.926;73.496;2022-08-21T01:21:32;7.95;;;7.18;;
59907;SDS011;61804;54.926;73.496;2022-08-21T01:24:00;8.98;;;4.85;;
59907;SDS011;61804;54.926;73.496;2022-08-21T01:26:30;12.20;;;5.90;;
59907;SDS011;61804;54.926;73.496;2022-08-21T01:31:47;6.38;;;4.65;;
59907;SDS011;61804;54.926;73.496;2022-08-21T01:34:15;6.80;;;5.18;;
59907;SDS011;61804;54.926;73.496;2022-08-21T01:36:44;4.40;;;3.47;;
59907;SDS011;61804;54.926;73.496;2022-08-21T01:39:21;10.38;;;5.30;;
59907;SDS011;61804;54.926;73.496;2022-08-21T01:41:49;13.15;;;3.80;;
59907;SDS011;61804;54.926;73.496;2022-08-21T01:44:23;2.63;;;2.35;;
59907;SDS011;61804;54.926;73.496;2022-08-21T01:46:51;5.43;;;4.68;;
59907;SDS011;61804;54.926;73.496;2022-08-21T01:49:23;9.55;;;3.60;;
59907;SDS011;61804;54.926;73.496;2022-08-21T01:51:51;5.10;;;4.05;;
59907;SDS011;61804;54.926;73.496;2022-08-21T01:54:19;5.63;;;3.30;;
59907;SDS011;61804;54.926;73.496;2022-08-21T01:56:48;5.10;;;3.70;;
59907;SDS011;61804;54.926;73.496;2022-08-21T01:59:17;6.07;;;4.47;;
59907;SDS011;61804;54.926;73.496;2022-08-21T02:01:44;6.00;;;5.40;;
59907;SDS011;61804;54.926;73.496;2022-08-21T02:04:22;6.15;;;5.25;;
59907;SDS011;61804;54.926;73.496;2022-08-21T02:06:51;4.93;;;3.65;;
59907;SDS011;61804;54.926;73.496;2022-08-21T02:09:18;5.22;;;4.25;;
59907;SDS011;61804;54.926;73.496;2022-08-21T02:11:46;8.75;;;5.22;;
59907;SDS011;61804;54.926;73.496;2022-08-21T02:14:15;6.43;;;5.75;;
59907;SDS011;61804;54.926;73.496;2022-08-21T02:16:44;8.00;;;6.32;;
59907;SDS011;61804;54.926;73.496;2022-08-21T02:19:16;11.70;;;5.70;;
59907;SDS011;61804;54.926;73.496;2022-08-21T02:21:55;11.73;;;7.60;;
59907;SDS011;61804;54.926;73.496;2022-08-21T02:24:23;5.28;;;4.30;;
59907;SDS011;61804;54.926;73.496;2022-08-21T02:26:50;8.00;;;6.13;;
59907;SDS011;61804;54.926;73.496;2022-08-21T02:29:17;6.60;;;5.80;;
59907;SDS011;61804;54.926;73.496;2022-08-21T02:31:45;6.05;;;4.18;;
59907;SDS011;61804;54.926;73.496;2022-08-21T02:34:13;8.02;;;3.67;;
59907;SDS011;61804;54.926;73.496;2022-08-21T02:36:40;7.25;;;5.00;;
59907;SDS011;61804;54.926;73.496;2022-08-21T02:39:12;6.93;;;3.38;;
59907;SDS011;61804;54.926;73.496;2022-08-21T02:41:40;9.18;;;4.80;;
59907;SDS011;61804;54.926;73.496;2022-08-21T02:44:08;5.55;;;4.95;;
59907;SDS011;61804;54.926;73.496;2022-08-21T02:46:36;6.55;;;4.30;;
59907;SDS011;61804;54.926;73.496;2022-08-21T02:49:05;7.60;;;4.43;;
59907;SDS011;61804;54.926;73.496;2022-08-21T02:51:33;13.98;;;7.35;;
59907;SDS011;61804;54.926;73.496;2022-08-21T02:54:01;5.18;;;3.80;;
59907;SDS011;61804;54.926;73.496;2022-08-21T02:56:29;5.60;;;4.10;;
59907;SDS011;61804;54.926;73.496;2022-08-21T02:58:57;5.53;;;4.68;;
59907;SDS011;61804;54.926;73.496;2022-08-21T03:01:26;14.95;;;4.45;;
59907;SDS011;61804;54.926;73.496;2022-08-21T03:03:58;10.18;;;3.47;;
59907;SDS011;61804;54.926;73.496;2022-08-21T03:06:26;7.85;;;4.55;;
59907;SDS011;61804;54.926;73.496;2022-08-21T03:08:55;5.03;;;4.20;;
59907;SDS011;61804;54.926;73.496;2022-08-21T03:11:23;4.55;;;3.90;;
59907;SDS011;61804;54.926;73.496;2022-08-21T03:13:52;6.43;;;4.97;;
59907;SDS011;61804;54.926;73.496;2022-08-21T03:16:21;5.20;;;3.67;;
59907;SDS011;61804;54.926;73.496;2022-08-21T03:18:48;7.13;;;3.80;;
59907;SDS011;61804;54.926;73.496;2022-08-21T03:21:16;5.03;;;4.38;;
59907;SDS011;61804;54.926;73.496;2022-08-21T03:23:45;16.88;;;7.00;;
59907;SDS011;61804;54.926;73.496;2022-08-21T03:26:13;4.25;;;3.85;;
59907;SDS011;61804;54.926;73.496;2022-08-21T03:28:40;5.95;;;4.22;;
59907;SDS011;61804;54.926;73.496;2022-08-21T03:31:08;6.00;;;5.40;;
59907;SDS011;61804;54.926;73.496;2022-08-21T03:33:35;8.35;;;5.90;;
59907;SDS011;61804;54.926;73.496;2022-08-21T03:36:05;10.00;;;5.50;;
59907;SDS011;61804;54.926;73.496;2022-08-21T03:38:34;9.35;;;6.05;;
59907;SDS011;61804;54.926;73.496;2022-08-21T03:41:03;25.17;;;7.22;;
59907;SDS011;61804;54.926;73.496;2022-08-21T03:43:31;5.10;;;4.63;;
59907;SDS011;61804;54.926;73.496;2022-08-21T03:46:03;6.57;;;4.15;;
59907;SDS011;61804;54.926;73.496;2022-08-21T03:48:31;5.00;;;4.53;;
59907;SDS011;61804;54.926;73.496;2022-08-21T03:50:59;10.00;;;7.43;;
59907;SDS011;61804;54.926;73.496;2022-08-21T03:53:27;4.90;;;4.43;;
59907;SDS011;61804;54.926;73.496;2022-08-21T03:55:58;6.55;;;4.97;;
59907;SDS011;61804;54.926;73.496;2022-08-21T03:58:27;14.85;;;6.82;;
59907;SDS011;61804;54.926;73.496;2022-08-21T04:00:57;6.05;;;5.13;;
59907;SDS011;61804;54.926;73.496;2022-08-21T04:03:25;5.47;;;4.97;;
59907;SDS011;61804;54.926;73.496;2022-08-21T04:05:53;9.40;;;5.63;;
59907;SDS011;61804;54.926;73.496;2022-08-21T04:08:27;7.88;;;7.18;;
59907;SDS011;61804;54.926;73.496;2022-08-21T04:10:56;8.98;;;7.20;;
59907;SDS011;61804;54.926;73.496;2022-08-21T04:13:26;9.60;;;6.43;;
59907;SDS011;61804;54.926;73.496;2022-08-21T04:16:06;13.57;;;7.57;;
59907;SDS011;61804;54.926;73.496;2022-08-21T04:18:34;10.32;;;6.35;;
59907;SDS011;61804;54.926;73.496;2022-08-21T04:21:02;7.50;;;5.82;;
59907;SDS011;61804;54.926;73.496;2022-08-21T04:23:31;6.82;;;6.03;;
59907;SDS011;61804;54.926;73.496;2022-08-21T04:25:59;12.02;;;7.65;;
59907;SDS011;61804;54.926;73.496;2022-08-21T04:28:27;10.80;;;6.63;;
59907;SDS011;61804;54.926;73.496;2022-08-21T04:30:55;6.65;;;6.00;;
59907;SDS011;61804;54.926;73.496;2022-08-21T04:33:22;9.00;;;6.28;;
59907;SDS011;61804;54.926;73.496;2022-08-21T04:35:51;12.98;;;6.35;;
59907;SDS011;61804;54.926;73.496;2022-08-21T04:38:19;9.32;;;8.10;;
59907;SDS011;61804;54.926;73.496;2022-08-21T04:40:48;11.55;;;9.45;;
59907;SDS011;61804;54.926;73.496;2022-08-21T04:43:28;11.05;;;8.02;;
59907;SDS011;61804;54.926;73.496;2022-08-21T04:45:56;8.90;;;7.35;;
59907;SDS011;61804;54.926;73.496;2022-08-21T04:48:23;10.15;;;9.10;;
59907;SDS011;61804;54.926;73.496;2022-08-21T04:53:25;7.70;;;7.03;;
59907;SDS011;61804;54.926;73.496;2022-08-21T04:55:53;7.80;;;7.10;;
59907;SDS011;61804;54.926;73.496;2022-08-21T04:58:21;11.50;;;8.40;;
59907;SDS011;61804;54.926;73.496;2022-08-21T05:00:50;6.95;;;6.30;;
59907;SDS011;61804;54.926;73.496;2022-08-21T05:03:20;7.15;;;6.00;;
59907;SDS011;61804;54.926;73.496;2022-08-21T05:05:48;8.50;;;7.32;;
59907;SDS011;61804;54.926;73.496;2022-08-21T05:08:17;7.70;;;6.15;;
59907;SDS011;61804;54.926;73.496;2022-08-21T05:10:46;12.88;;;8.52;;
59907;SDS011;61804;54.926;73.496;2022-08-21T05:13:13;8.30;;;6.53;;
59907;SDS011;61804;54.926;73.496;2022-08-21T05:15:41;14.43;;;6.30;;
59907;SDS011;61804;54.926;73.496;2022-08-21T05:18:10;12.48;;;8.38;;
59907;SDS011;61804;54.926;73.496;2022-08-21T05:20:37;6.95;;;6.05;;
59907;SDS011;61804;54.926;73.496;2022-08-21T05:23:08;8.07;;;7.28;;
59907;SDS011;61804;54.926;73.496;2022-08-21T05:25:43;16.10;;;11.60;;
59907;SDS011;61804;54.926;73.496;2022-08-21T05:28:10;17.48;;;14.60;;
59907;SDS011;61804;54.926;73.496;2022-08-21T05:30:42;14.85;;;11.45;;
59907;SDS011;61804;54.926;73.496;2022-08-21T05:33:10;18.58;;;11.35;;
59907;SDS011;61804;54.926;73.496;2022-08-21T05:35:40;17.92;;;13.27;;
59907;SDS011;61804;54.926;73.496;2022-08-21T05:38:07;15.93;;;10.82;;
59907;SDS011;61804;54.926;73.496;2022-08-21T05:40:36;14.23;;;10.85;;
59907;SDS011;61804;54.926;73.496;2022-08-21T05:43:04;13.95;;;11.75;;
59907;SDS011;61804;54.926;73.496;2022-08-21T05:45:32;10.57;;;9.57;;
59907;SDS011;61804;54.926;73.496;2022-08-21T05:48:08;9.85;;;8.23;;
59907;SDS011;61804;54.926;73.496;2022-08-21T05:50:35;12.10;;;11.00;;
59907;SDS011;61804;54.926;73.496;2022-08-21T05:53:05;11.75;;;10.65;;
59907;SDS011;61804;54.926;73.496;2022-08-21T05:55:33;12.80;;;8.90;;
59907;SDS011;61804;54.926;73.496;2022-08-21T05:58:04;10.93;;;8.50;;
59907;SDS011;61804;54.926;73.496;2022-08-21T06:00:32;10.55;;;9.40;;
59907;SDS011;61804;54.926;73.496;2022-08-21T06:03:00;12.27;;;9.93;;
59907;SDS011;61804;54.926;73.496;2022-08-21T06:05:32;11.50;;;7.82;;
59907;SDS011;61804;54.926;73.496;2022-08-21T06:08:02;8.68;;;7.85;;
59907;SDS011;61804;54.926;73.496;2022-08-21T06:10:30;8.43;;;7.47;;
59907;SDS011;61804;54.926;73.496;2022-08-21T06:12:58;7.82;;;7.13;;
59907;SDS011;61804;54.926;73.496;2022-08-21T06:15:27;7.22;;;5.97;;
59907;SDS011;61804;54.926;73.496;2022-08-21T06:18:05;7.53;;;6.28;;
59907;SDS011;61804;54.926;73.496;2022-08-21T06:20:44;7.57;;;6.90;;
59907;SDS011;61804;54.926;73.496;2022-08-21T06:23:25;18.92;;;12.55;;
59907;SDS011;61804;54.926;73.496;2022-08-21T06:25:53;21.48;;;18.35;;
59907;SDS011;61804;54.926;73.496;2022-08-21T06:28:31;24.58;;;16.27;;
59907;SDS011;61804;54.926;73.496;2022-08-21T06:31:17;17.63;;;12.55;;
59907;SDS011;61804;54.926;73.496;2022-08-21T06:33:50;19.17;;;11.45;;
59907;SDS011;61804;54.926;73.496;2022-08-21T06:36:18;26.25;;;15.65;;
59907;SDS011;61804;54.926;73.496;2022-08-21T06:38:54;13.63;;;10.07;;
59907;SDS011;61804;54.926;73.496;2022-08-21T06:41:26;28.50;;;21.35;;
59907;SDS011;61804;54.926;73.496;2022-08-21T06:43:55;13.02;;;9.70;;
59907;SDS011;61804;54.926;73.496;2022-08-21T06:46:24;16.20;;;10.13;;
59907;SDS011;61804;54.926;73.496;2022-08-21T06:49:00;13.95;;;8.48;;
59907;SDS011;61804;54.926;73.496;2022-08-21T06:51:28;18.77;;;11.82;;
59907;SDS011;61804;54.926;73.496;2022-08-21T06:53:57;18.45;;;14.05;;
59907;SDS011;61804;54.926;73.496;2022-08-21T06:56:24;16.92;;;14.98;;
59907;SDS011;61804;54.926;73.496;2022-08-21T06:59:04;25.73;;;18.05;;
59907;SDS011;61804;54.926;73.496;2022-08-21T07:01:36;21.38;;;19.23;;
59907;SDS011;61804;54.926;73.496;2022-08-21T07:04:08;19.58;;;14.93;;
59907;SDS011;61804;54.926;73.496;2022-08-21T07:06:41;22.70;;;11.70;;
59907;SDS011;61804;54.926;73.496;2022-08-21T07:09:14;36.05;;;14.68;;
59907;SDS011;61804;54.926;73.496;2022-08-21T07:11:44;26.63;;;14.38;;
59907;SDS011;61804;54.926;73.496;2022-08-21T07:16:46;32.35;;;12.27;;
59907;SDS011;61804;54.926;73.496;2022-08-21T07:19:17;38.33;;;14.75;;
59907;SDS011;61804;54.926;73.496;2022-08-21T07:21:44;15.07;;;9.93;;
59907;SDS011;61804;54.926;73.496;2022-08-21T07:24:12;12.65;;;9.32;;
59907;SDS011;61804;54.926;73.496;2022-08-21T07:26:41;23.38;;;13.73;;
59907;SDS011;61804;54.926;73.496;2022-08-21T07:29:19;24.02;;;13.02;;
59907;SDS011;61804;54.926;73.496;2022-08-21T07:31:46;24.02;;;11.75;;
59907;SDS011;61804;54.926;73.496;2022-08-21T07:34:20;14.75;;;6.75;;
59907;SDS011;61804;54.926;73.496;2022-08-21T07:36:47;23.33;;;9.27;;
59907;SDS011;61804;54.926;73.496;2022-08-21T07:39:14;14.52;;;6.53;;
59907;SDS011;61804;54.926;73.496;2022-08-21T07:41:42;11.23;;;4.57;;
59907;SDS011;61804;54.926;73.496;2022-08-21T07:44:09;4.00;;;2.45;;
59907;SDS011;61804;54.926;73.496;2022-08-21T07:46:37;8.98;;;2.40;;
59907;SDS011;61804;54.926;73.496;2022-08-21T07:49:05;54.92;;;16.75;;
59907;SDS011;61804;54.926;73.496;2022-08-21T07:51:33;109.75;;;47.33;;
59907;SDS011;61804;54.926;73.496;2022-08-21T07:54:00;104.78;;;45.30;;
59907;SDS011;61804;54.926;73.496;2022-08-21T07:56:29;56.47;;;26.63;;
59907;SDS011;61804;54.926;73.496;2022-08-21T07:58:57;7.88;;;5.50;;
59907;SDS011;61804;54.926;73.496;2022-08-21T08:01:25;8.55;;;7.82;;
59907;SDS011;61804;54.926;73.496;2022-08-21T08:03:54;8.65;;;7.93;;
59907;SDS011;61804;54.926;73.496;2022-08-21T08:06:22;6.38;;;5.88;;
59907;SDS011;61804;54.926;73.496;2022-08-21T08:08:49;4.03;;;3.72;;
59907;SDS011;61804;54.926;73.496;2022-08-21T08:11:17;4.78;;;2.38;;
59907;SDS011;61804;54.926;73.496;2022-08-21T08:13:46;2.17;;;1.67;;
59907;SDS011;61804;54.926;73.496;2022-08-21T08:16:15;3.97;;;3.63;;
59907;SDS011;61804;54.926;73.496;2022-08-21T08:18:46;2.15;;;1.50;;
59907;SDS011;61804;54.926;73.496;2022-08-21T08:21:14;3.15;;;2.15;;
59907;SDS011;61804;54.926;73.496;2022-08-21T08:23:42;2.80;;;2.40;;
59907;SDS011;61804;54.926;73.496;2022-08-21T08:26:11;1.52;;;1.33;;
59907;SDS011;61804;54.926;73.496;2022-08-21T08:28:40;1.58;;;1.08;;
59907;SDS011;61804;54.926;73.496;2022-08-21T08:31:08;2.13;;;0.90;;
59907;SDS011;61804;54.926;73.496;2022-08-21T08:33:36;1.70;;;1.55;;
59907;SDS011;61804;54.926;73.496;2022-08-21T08:36:03;1.40;;;1.13;;
59907;SDS011;61804;54.926;73.496;2022-08-21T08:38:32;6.38;;;5.13;;
59907;SDS011;61804;54.926;73.496;2022-08-21T08:43:28;0.80;;;0.80;;
59907;SDS011;61804;54.926;73.496;2022-08-21T08:45:56;3.72;;;1.38;;
59907;SDS011;61804;54.926;73.496;2022-08-21T08:51:15;3.33;;;1.00;;
59907;SDS011;61804;54.926;73.496;2022-08-21T08:53:47;2.75;;;1.05;;
59907;SDS011;61804;54.926;73.496;2022-08-21T08:56:18;1.77;;;1.38;;
59907;SDS011;61804;54.926;73.496;2022-08-21T08:58:53;1.40;;;0.98;;
59907;SDS011;61804;54.926;73.496;2022-08-21T09:01:23;3.72;;;1.77;;
59907;SDS011;61804;54.926;73.496;2022-08-21T09:03:52;0.85;;;0.63;;
59907;SDS011;61804;54.926;73.496;2022-08-21T09:07:04;1.85;;;0.88;;
59907;SDS011;61804;54.926;73.496;2022-08-21T09:11:56;1.63;;;1.08;;
59907;SDS011;61804;54.926;73.496;2022-08-21T09:14:29;1.08;;;0.98;;
59907;SDS011;61804;54.926;73.496;2022-08-21T09:17:23;1.27;;;0.95;;
59907;SDS011;61804;54.926;73.496;2022-08-21T09:20:16;1.63;;;1.13;;
59907;SDS011;61804;54.926;73.496;2022-08-21T09:28:16;0.60;;;0.60;;
59907;SDS011;61804;54.926;73.496;2022-08-21T09:30:55;1.17;;;0.98;;
59907;SDS011;61804;54.926;73.496;2022-08-21T09:33:26;5.15;;;1.13;;
59907;SDS011;61804;54.926;73.496;2022-08-21T09:35:59;1.42;;;1.05;;
59907;SDS011;61804;54.926;73.496;2022-08-21T09:38:31;5.13;;;1.25;;
59907;SDS011;61804;54.926;73.496;2022-08-21T09:41:05;6.65;;;1.63;;
59907;SDS011;61804;54.926;73.496;2022-08-21T09:43:34;1.45;;;1.05;;
59907;SDS011;61804;54.926;73.496;2022-08-21T09:46:21;1.95;;;1.02;;
59907;SDS011;61804;54.926;73.496;2022-08-21T09:48:54;1.38;;;1.00;;
59907;SDS011;61804;54.926;73.496;2022-08-21T09:51:31;2.50;;;1.50;;
59907;SDS011;61804;54.926;73.496;2022-08-21T09:54:12;12.60;;;2.63;;
59907;SDS011;61804;54.926;73.496;2022-08-21T09:59:40;5.63;;;2.92;;
59907;SDS011;61804;54.926;73.496;2022-08-21T10:05:07;4.15;;;3.13;;
59907;SDS011;61804;54.926;73.496;2022-08-21T10:07:36;13.23;;;2.72;;
59907;SDS011;61804;54.926;73.496;2022-08-21T10:13:03;3.03;;;2.15;;
59907;SDS011;61804;54.926;73.496;2022-08-21T10:28:55;7.55;;;2.50;;
59907;SDS011;61804;54.926;73.496;2022-08-21T10:31:46;23.05;;;2.78;;
59907;SDS011;61804;54.926;73.496;2022-08-21T10:34:21;2.42;;;1.73;;
59907;SDS011;61804;54.926;73.496;2022-08-21T10:42:30;9.75;;;3.65;;
59907;SDS011;61804;54.926;73.496;2022-08-21T10:52:42;7.28;;;2.83;;
59907;SDS011;61804;54.926;73.496;2022-08-21T11:00:24;5.70;;;2.47;;
59907;SDS011;61804;54.926;73.496;2022-08-21T11:04:01;8.30;;;2.65;;
59907;SDS011;61804;54.926;73.496;2022-08-21T11:08:36;12.95;;;3.67;;
59907;SDS011;61804;54.926;73.496;2022-08-21T11:13:49;15.02;;;5.60;;
59907;SDS011;61804;54.926;73.496;2022-08-21T11:16:21;11.93;;;4.15;;
59907;SDS011;61804;54.926;73.496;2022-08-21T11:19:00;6.72;;;3.03;;
59907;SDS011;61804;54.926;73.496;2022-08-21T11:21:44;11.35;;;3.85;;
59907;SDS011;61804;54.926;73.496;2022-08-21T11:26:57;24.77;;;8.10;;
59907;SDS011;61804;54.926;73.496;2022-08-21T11:29:29;19.35;;;5.15;;
59907;SDS011;61804;54.926;73.496;2022-08-21T11:35:18;14.13;;;4.38;;
59907;SDS011;61804;54.926;73.496;2022-08-21T11:39:56;9.75;;;3.17;;
59907;SDS011;61804;54.926;73.496;2022-08-21T11:42:35;9.43;;;4.78;;
59907;SDS011;61804;54.926;73.496;2022-08-21T11:50:14;6.05;;;3.88;;
59907;SDS011;61804;54.926;73.496;2022-08-21T11:52:56;4.85;;;2.80;;
59907;SDS011;61804;54.926;73.496;2022-08-21T11:55:32;2.85;;;2.45;;
59907;SDS011;61804;54.926;73.496;2022-08-21T11:58:08;4.93;;;1.92;;
59907;SDS011;61804;54.926;73.496;2022-08-21T12:00:54;8.68;;;4.65;;
59907;SDS011;61804;54.926;73.496;2022-08-21T12:03:29;8.70;;;2.53;;
59907;SDS011;61804;54.926;73.496;2022-08-21T12:06:08;5.72;;;3.03;;
59907;SDS011;61804;54.926;73.496;2022-08-21T12:08:38;6.35;;;3.20;;
59907;SDS011;61804;54.926;73.496;2022-08-21T12:11:08;5.65;;;4.32;;
59907;SDS011;61804;54.926;73.496;2022-08-21T12:16:34;6.10;;;3.90;;
59907;SDS011;61804;54.926;73.496;2022-08-21T12:19:06;12.05;;;5.70;;
59907;SDS011;61804;54.926;73.496;2022-08-21T12:22:20;9.85;;;6.15;;
59907;SDS011;61804;54.926;73.496;2022-08-21T12:29:45;9.35;;;3.25;;
59907;SDS011;61804;54.926;73.496;2022-08-21T12:34:48;11.00;;;3.58;;
59907;SDS011;61804;54.926;73.496;2022-08-21T12:37:20;8.32;;;2.92;;
59907;SDS011;61804;54.926;73.496;2022-08-21T12:39:51;7.40;;;4.45;;
59907;SDS011;61804;54.926;73.496;2022-08-21T12:42:22;16.90;;;4.22;;
59907;SDS011;61804;54.926;73.496;2022-08-21T12:44:51;9.68;;;5.60;;
59907;SDS011;61804;54.926;73.496;2022-08-21T12:49:56;7.10;;;2.20;;
59907;SDS011;61804;54.926;73.496;2022-08-21T12:52:34;9.57;;;4.10;;
59907;SDS011;61804;54.926;73.496;2022-08-21T12:55:02;7.75;;;3.33;;
59907;SDS011;61804;54.926;73.496;2022-08-21T12:57:31;7.15;;;4.45;;
59907;SDS011;61804;54.926;73.496;2022-08-21T13:00:03;15.85;;;3.83;;
59907;SDS011;61804;54.926;73.496;2022-08-21T13:02:37;29.77;;;6.70;;
59907;SDS011;61804;54.926;73.496;2022-08-21T13:05:12;10.82;;;3.05;;
59907;SDS011;61804;54.926;73.496;2022-08-21T13:07:43;12.18;;;3.80;;
59907;SDS011;61804;54.926;73.496;2022-08-21T13:10:20;4.63;;;2.67;;
59907;SDS011;61804;54.926;73.496;2022-08-21T13:12:48;8.07;;;2.08;;
59907;SDS011;61804;54.926;73.496;2022-08-21T13:15:22;11.73;;;4.80;;
59907;SDS011;61804;54.926;73.496;2022-08-21T13:20:24;2.00;;;1.83;;
59907;SDS011;61804;54.926;73.496;2022-08-21T13:22:53;16.02;;;4.70;;
59907;SDS011;61804;54.926;73.496;2022-08-21T13:25:21;7.25;;;3.15;;
59907;SDS011;61804;54.926;73.496;2022-08-21T13:28:05;11.80;;;2.75;;
59907;SDS011;61804;54.926;73.496;2022-08-21T13:30:34;7.57;;;3.78;;
59907;SDS011;61804;54.926;73.496;2022-08-21T13:33:06;20.88;;;5.72;;
59907;SDS011;61804;54.926;73.496;2022-08-21T13:38:19;9.35;;;3.67;;
59907;SDS011;61804;54.926;73.496;2022-08-21T13:40:53;13.45;;;3.33;;
59907;SDS011;61804;54.926;73.496;2022-08-21T13:43:34;6.22;;;3.55;;
59907;SDS011;61804;54.926;73.496;2022-08-21T13:46:06;9.77;;;5.32;;
59907;SDS011;61804;54.926;73.496;2022-08-21T13:48:35;5.97;;;3.72;;
59907;SDS011;61804;54.926;73.496;2022-08-21T13:51:06;11.90;;;3.75;;
59907;SDS011;61804;54.926;73.496;2022-08-21T13:53:46;7.47;;;2.67;;
59907;SDS011;61804;54.926;73.496;2022-08-21T13:58:53;6.38;;;3.75;;
59907;SDS011;61804;54.926;73.496;2022-08-21T14:03:53;4.00;;;3.15;;
59907;SDS011;61804;54.926;73.496;2022-08-21T14:06:23;5.32;;;3.25;;
59907;SDS011;61804;54.926;73.496;2022-08-21T14:08:53;14.20;;;3.70;;
59907;SDS011;61804;54.926;73.496;2022-08-21T14:11:21;17.02;;;2.92;;
59907;SDS011;61804;54.926;73.496;2022-08-21T14:13:51;14.05;;;5.57;;
59907;SDS011;61804;54.926;73.496;2022-08-21T14:16:24;13.38;;;4.35;;
59907;SDS011;61804;54.926;73.496;2022-08-21T14:19:05;8.30;;;2.72;;
59907;SDS011;61804;54.926;73.496;2022-08-21T14:21:36;13.90;;;3.53;;
59907;SDS011;61804;54.926;73.496;2022-08-21T14:24:07;12.48;;;4.53;;
59907;SDS011;61804;54.926;73.496;2022-08-21T14:26:43;2.53;;;2.30;;
59907;SDS011;61804;54.926;73.496;2022-08-21T14:29:18;2.72;;;2.45;;
59907;SDS011;61804;54.926;73.496;2022-08-21T14:31:53;14.35;;;4.32;;
59907;SDS011;61804;54.926;73.496;2022-08-21T14:34:26;9.68;;;2.58;;
59907;SDS011;61804;54.926;73.496;2022-08-21T14:36:54;6.28;;;2.53;;
59907;SDS011;61804;54.926;73.496;2022-08-21T14:39:24;10.60;;;3.45;;
59907;SDS011;61804;54.926;73.496;2022-08-21T14:41:52;9.45;;;3.35;;
59907;SDS011;61804;54.926;73.496;2022-08-21T14:44:20;7.63;;;2.95;;
59907;SDS011;61804;54.926;73.496;2022-08-21T14:46:53;5.63;;;2.85;;
59907;SDS011;61804;54.926;73.496;2022-08-21T14:49:23;6.05;;;4.93;;
59907;SDS011;61804;54.926;73.496;2022-08-21T14:51:53;7.88;;;4.22;;
59907;SDS011;61804;54.926;73.496;2022-08-21T14:54:24;9.38;;;4.13;;
59907;SDS011;61804;54.926;73.496;2022-08-21T14:56:52;7.57;;;3.42;;
59907;SDS011;61804;54.926;73.496;2022-08-21T14:59:27;19.40;;;4.90;;
59907;SDS011;61804;54.926;73.496;2022-08-21T15:02:07;5.32;;;4.57;;
59907;SDS011;61804;54.926;73.496;2022-08-21T15:04:35;8.65;;;4.88;;
59907;SDS011;61804;54.926;73.496;2022-08-21T15:07:02;57.67;;;34.88;;
59907;SDS011;61804;54.926;73.496;2022-08-21T15:09:31;30.13;;;17.88;;
59907;SDS011;61804;54.926;73.496;2022-08-21T15:12:02;27.27;;;13.70;;
59907;SDS011;61804;54.926;73.496;2022-08-21T15:14:31;35.28;;;18.80;;
59907;SDS011;61804;54.926;73.496;2022-08-21T15:17:00;18.98;;;9.45;;
59907;SDS011;61804;54.926;73.496;2022-08-21T15:19:28;24.38;;;16.77;;
59907;SDS011;61804;54.926;73.496;2022-08-21T15:22:04;16.02;;;13.07;;
59907;SDS011;61804;54.926;73.496;2022-08-21T15:24:36;15.23;;;7.60;;
59907;SDS011;61804;54.926;73.496;2022-08-21T15:27:05;11.35;;;5.82;;
59907;SDS011;61804;54.926;73.496;2022-08-21T15:29:33;4.60;;;3.70;;
59907;SDS011;61804;54.926;73.496;2022-08-21T15:32:16;7.38;;;4.13;;
59907;SDS011;61804;54.926;73.496;2022-08-21T15:34:45;5.88;;;4.60;;
59907;SDS011;61804;54.926;73.496;2022-08-21T15:37:13;3.70;;;2.95;;
59907;SDS011;61804;54.926;73.496;2022-08-21T15:39:41;8.50;;;3.72;;
59907;SDS011;61804;54.926;73.496;2022-08-21T15:42:11;6.40;;;5.43;;
59907;SDS011;61804;54.926;73.496;2022-08-21T15:44:42;7.57;;;4.45;;
59907;SDS011;61804;54.926;73.496;2022-08-21T15:47:21;20.27;;;6.38;;
59907;SDS011;61804;54.926;73.496;2022-08-21T15:49:49;11.77;;;4.18;;
59907;SDS011;61804;54.926;73.496;2022-08-21T15:52:21;7.70;;;3.70;;
59907;SDS011;61804;54.926;73.496;2022-08-21T15:54:52;9.38;;;3.65;;
59907;SDS011;61804;54.926;73.496;2022-08-21T15:57:21;5.70;;;2.92;;
59907;SDS011;61804;54.926;73.496;2022-08-21T15:59:57;5.47;;;2.95;;
59907;SDS011;61804;54.926;73.496;2022-08-21T16:02:30;14.50;;;3.47;;
59907;SDS011;61804;54.926;73.496;2022-08-21T16:04:58;4.97;;;3.55;;
59907;SDS011;61804;54.926;73.496;2022-08-21T16:07:30;13.80;;;7.90;;
59907;SDS011;61804;54.926;73.496;2022-08-21T16:09:58;10.50;;;5.03;;
59907;SDS011;61804;54.926;73.496;2022-08-21T16:12:27;8.57;;;4.68;;
59907;SDS011;61804;54.926;73.496;2022-08-21T16:15:06;11.35;;;4.97;;
59907;SDS011;61804;54.926;73.496;2022-08-21T16:17:36;11.73;;;3.88;;
59907;SDS011;61804;54.926;73.496;2022-08-21T16:20:06;9.32;;;3.47;;
59907;SDS011;61804;54.926;73.496;2022-08-21T16:22:44;8.05;;;3.97;;
59907;SDS011;61804;54.926;73.496;2022-08-21T16:25:13;9.98;;;4.03;;
59907;SDS011;61804;54.926;73.496;2022-08-21T16:27:43;8.10;;;4.63;;
59907;SDS011;61804;54.926;73.496;2022-08-21T16:30:17;6.72;;;4.53;;
59907;SDS011;61804;54.926;73.496;2022-08-21T16:32:46;12.43;;;4.57;;
59907;SDS011;61804;54.926;73.496;2022-08-21T16:35:16;15.82;;;5.40;;